createdAt,value
2023-05-10T00:01:40.203Z,58.47
2023-05-10T00:04:09.376Z,58.50
2023-05-10T00:06:38.617Z,58.92
2023-05-10T00:09:08.170Z,59.18
2023-05-10T00:11:37.206Z,59.44
2023-05-10T00:14:06.273Z,59.34
2023-05-10T00:16:35.325Z,59.49
2023-05-10T00:19:04.237Z,59.69
2023-05-10T00:21:35.195Z,59.92
2023-05-10T00:24:04.429Z,59.73
2023-05-10T00:26:33.694Z,59.63
2023-05-10T00:29:02.937Z,59.50
2023-05-10T00:31:32.102Z,59.63
2023-05-10T00:34:01.677Z,59.83
2023-05-10T00:36:31.356Z,59.72
2023-05-10T00:39:01.398Z,59.59
2023-05-10T00:41:31.047Z,59.74
2023-05-10T00:44:00.272Z,60.02
2023-05-10T00:46:30.446Z,60.07
2023-05-10T00:49:00.215Z,60.02
2023-05-10T00:51:29.785Z,59.87
2023-05-10T00:54:00.216Z,59.98
2023-05-10T00:56:31.274Z,60.45
2023-05-10T00:59:01.477Z,60.45
2023-05-10T01:01:31.333Z,60.24
2023-05-10T01:04:01.233Z,60.22
2023-05-10T01:06:30.714Z,60.37
2023-05-10T01:08:59.983Z,60.47
2023-05-10T01:11:29.082Z,60.04
2023-05-10T01:13:59.415Z,59.91
2023-05-10T01:16:30.458Z,59.90
2023-05-10T01:19:00.048Z,60.04
2023-05-10T01:21:45.667Z,60.22
2023-05-10T01:24:48.665Z,59.96
2023-05-10T01:27:32.957Z,59.97
2023-05-10T01:30:26.880Z,60.36
2023-05-10T01:33:18.678Z,61.08
2023-05-10T01:36:02.910Z,61.09
2023-05-10T01:38:43.154Z,60.87
2023-05-10T01:41:37.943Z,61.04
2023-05-10T01:44:29.199Z,61.51
2023-05-10T01:47:32.669Z,61.44
2023-05-10T01:50:04.595Z,61.36
2023-05-10T01:52:43.021Z,61.45
2023-05-10T01:55:17.690Z,61.91
2023-05-10T01:57:49.586Z,62.12
2023-05-10T02:00:20.307Z,62.13
2023-05-10T02:02:52.896Z,62.26
2023-05-10T02:05:23.330Z,62.51
2023-05-10T02:07:54.143Z,62.56
2023-05-10T02:10:24.030Z,62.26
2023-05-10T02:12:55.630Z,62.04
2023-05-10T02:15:26.356Z,61.96
2023-05-10T02:17:57.371Z,62.18
2023-05-10T02:20:28.944Z,62.05
2023-05-10T02:22:59.317Z,61.78
2023-05-10T02:25:30.210Z,61.70
2023-05-10T02:28:01.773Z,61.66
2023-05-10T02:30:34.257Z,62.02
2023-05-10T02:33:07.179Z,61.66
2023-05-10T02:35:38.141Z,61.81
2023-05-10T02:38:09.277Z,62.25
2023-05-10T02:40:39.598Z,62.83
2023-05-10T02:43:13.611Z,63.43
2023-05-10T02:45:45.398Z,63.60
2023-05-10T02:48:14.388Z,63.67
2023-05-10T02:50:47.878Z,63.76
2023-05-10T02:53:22.860Z,63.86
2023-05-10T02:55:54.524Z,63.61
2023-05-10T02:58:23.823Z,63.96
2023-05-10T03:00:52.999Z,64.28
2023-05-10T03:03:22.429Z,64.19
2023-05-10T03:05:51.451Z,64.33
2023-05-10T03:08:20.513Z,64.41
2023-05-10T03:11:30.685Z,64.66
2023-05-10T03:14:03.662Z,64.57
2023-05-10T03:16:44.882Z,64.53
2023-05-10T03:19:29.258Z,64.63
2023-05-10T03:22:05.771Z,65.62
2023-05-10T03:24:38.034Z,65.80
2023-05-10T03:27:09.881Z,65.38
2023-05-10T03:29:41.001Z,65.29
2023-05-10T03:32:10.465Z,65.31
2023-05-10T03:34:44.696Z,65.18
2023-05-10T03:37:13.879Z,65.04
2023-05-10T03:39:43.176Z,65.31
2023-05-10T03:42:13.947Z,65.27
2023-05-10T03:44:43.072Z,65.39
2023-05-10T03:47:11.824Z,65.35
2023-05-10T03:49:40.725Z,65.25
2023-05-10T03:52:10.015Z,64.71
2023-05-10T03:54:39.754Z,64.46
2023-05-10T03:57:08.878Z,64.35
2023-05-10T03:59:38.020Z,64.25
2023-05-10T04:02:07.788Z,63.98
2023-05-10T04:04:36.582Z,63.79
2023-05-10T04:07:05.884Z,63.68
2023-05-10T04:09:35.364Z,63.42
2023-05-10T04:12:04.567Z,63.40
2023-05-10T04:14:33.967Z,63.95
2023-05-10T04:17:03.046Z,64.61
2023-05-10T04:19:32.781Z,64.68
2023-05-10T04:22:01.983Z,64.73
2023-05-10T04:24:31.578Z,64.76
2023-05-10T04:27:00.701Z,65.43
2023-05-10T04:29:29.977Z,65.60
2023-05-10T04:31:59.126Z,65.54
2023-05-10T04:34:27.802Z,65.76
2023-05-10T04:36:57.304Z,66.04
2023-05-10T04:39:26.450Z,65.85
2023-05-10T04:41:55.496Z,65.31
2023-05-10T04:44:24.571Z,64.89
2023-05-10T04:46:53.673Z,65.15
2023-05-10T04:49:23.504Z,65.42
2023-05-10T04:51:53.179Z,65.08
2023-05-10T04:54:22.485Z,64.54
2023-05-10T04:56:51.889Z,64.35
2023-05-10T04:59:22.196Z,64.30
2023-05-10T05:01:52.579Z,63.88
2023-05-10T05:04:24.764Z,63.68
2023-05-10T05:06:54.493Z,64.18
2023-05-10T05:09:24.775Z,64.57
2023-05-10T05:11:56.975Z,64.44
2023-05-10T05:14:29.336Z,64.30
2023-05-10T05:16:59.803Z,64.37
2023-05-10T05:19:30.080Z,64.31
2023-05-10T05:22:00.280Z,64.46
2023-05-10T05:24:29.866Z,64.63
2023-05-10T05:26:59.494Z,64.39
2023-05-10T05:29:28.870Z,64.50
2023-05-10T05:31:58.915Z,64.84
2023-05-10T05:34:28.634Z,64.52
2023-05-10T05:36:58.769Z,64.44
2023-05-10T05:39:28.272Z,64.05
2023-05-10T05:41:57.560Z,63.74
2023-05-10T05:44:27.641Z,63.57
2023-05-10T05:46:57.158Z,62.93
2023-05-10T05:49:27.213Z,63.15
2023-05-10T05:52:00.382Z,63.31
2023-05-10T05:54:31.354Z,63.71
2023-05-10T05:57:01.865Z,63.46
2023-05-10T05:59:32.354Z,63.28
2023-05-10T06:02:03.367Z,63.43
2023-05-10T06:04:34.950Z,63.38
2023-05-10T06:07:07.027Z,63.60
2023-05-10T06:09:36.420Z,63.67
2023-05-10T06:12:05.496Z,63.46
2023-05-10T06:14:35.254Z,63.79
2023-05-10T06:17:06.531Z,63.89
2023-05-10T06:19:38.411Z,63.78
2023-05-10T06:22:08.126Z,63.72
2023-05-10T06:24:39.569Z,64.16
2023-05-10T06:27:10.410Z,64.84
2023-05-10T06:29:40.033Z,64.83
2023-05-10T06:32:09.700Z,65.11
2023-05-10T06:34:39.766Z,65.41
2023-05-10T06:37:09.564Z,65.21
2023-05-10T06:39:39.661Z,65.30
2023-05-10T06:42:09.018Z,65.42
2023-05-10T06:44:38.850Z,65.59
2023-05-10T06:47:08.301Z,65.65
2023-05-10T06:49:38.536Z,65.60
2023-05-10T06:52:07.957Z,65.49
2023-05-10T06:54:36.623Z,65.61
2023-05-10T06:57:10.742Z,66.00
2023-05-10T06:59:45.766Z,66.19
2023-05-10T07:02:16.736Z,65.87
2023-05-10T07:04:48.566Z,65.26
2023-05-10T07:07:17.881Z,65.40
2023-05-10T07:09:47.305Z,65.76
2023-05-10T07:12:16.534Z,65.68
2023-05-10T07:14:45.987Z,65.64
2023-05-10T07:17:14.998Z,65.23
2023-05-10T07:19:44.797Z,66.06
2023-05-10T07:22:14.474Z,66.50
2023-05-10T07:24:43.800Z,66.49
2023-05-10T07:27:14.495Z,66.03
2023-05-10T07:29:44.249Z,65.83
2023-05-10T07:32:14.071Z,65.69
2023-05-10T07:34:43.991Z,65.98
2023-05-10T07:37:14.737Z,65.67
2023-05-10T07:39:45.561Z,66.27
2023-05-10T07:42:17.655Z,66.68
2023-05-10T07:44:47.268Z,66.82
2023-05-10T07:47:17.417Z,67.28
2023-05-10T07:49:48.688Z,68.76
2023-05-10T07:52:21.238Z,69.00
2023-05-10T07:54:52.121Z,69.53
2023-05-10T07:57:22.346Z,69.70
2023-05-10T07:59:52.239Z,69.42
2023-05-10T08:02:22.819Z,69.77
2023-05-10T08:04:53.204Z,69.85
2023-05-10T08:07:22.855Z,69.75
2023-05-10T08:09:52.669Z,69.51
2023-05-10T08:12:22.083Z,68.36
2023-05-10T08:14:52.503Z,68.53
2023-05-10T08:17:24.628Z,67.87
2023-05-10T08:19:54.070Z,66.88
2023-05-10T08:22:23.669Z,66.46
2023-05-10T08:24:53.514Z,65.98
2023-05-10T08:27:22.738Z,65.60
2023-05-10T08:29:52.853Z,65.88
2023-05-10T08:32:23.166Z,65.73
2023-05-10T08:34:53.564Z,66.00
2023-05-10T08:37:25.162Z,65.76
2023-05-10T08:39:55.840Z,65.40
2023-05-10T08:42:31.155Z,65.43
2023-05-10T08:45:01.662Z,64.73
2023-05-10T08:47:31.899Z,64.20
2023-05-10T08:50:05.741Z,64.96
2023-05-10T08:52:44.499Z,64.97
2023-05-10T08:55:19.371Z,64.65
2023-05-10T08:57:50.513Z,63.90
2023-05-10T09:00:21.666Z,63.18
2023-05-10T09:02:51.997Z,62.12
2023-05-10T09:05:21.511Z,62.08
2023-05-10T09:07:51.999Z,61.75
2023-05-10T09:10:22.851Z,61.70
2023-05-10T09:12:53.097Z,60.03
2023-05-10T09:15:24.259Z,60.23
2023-05-10T09:17:54.340Z,60.43
2023-05-10T09:20:24.304Z,59.78
2023-05-10T09:22:54.024Z,60.14
2023-05-10T09:25:26.089Z,59.20
2023-05-10T09:27:57.877Z,59.34
2023-05-10T09:30:30.948Z,59.19
2023-05-10T09:33:03.319Z,58.84
2023-05-10T09:35:35.348Z,58.89
2023-05-10T09:38:08.209Z,59.45
2023-05-10T09:40:38.329Z,59.42
2023-05-10T09:43:09.280Z,59.62
2023-05-10T09:45:39.769Z,59.74
2023-05-10T09:48:09.185Z,60.30
2023-05-10T09:50:40.626Z,60.33
2023-05-10T09:53:10.023Z,60.86
2023-05-10T09:55:48.307Z,61.81
2023-05-10T09:58:17.649Z,62.08
2023-05-10T10:00:52.922Z,62.23
2023-05-10T10:03:24.569Z,62.56
2023-05-10T10:05:56.182Z,63.38
2023-05-10T10:08:27.655Z,63.79
2023-05-10T10:10:57.908Z,63.79
2023-05-10T10:13:27.944Z,64.10
2023-05-10T10:15:57.962Z,64.62
2023-05-10T10:18:34.932Z,64.64
2023-05-10T10:21:05.482Z,64.75
2023-05-10T10:23:41.124Z,64.58
2023-05-10T10:26:14.094Z,64.84
2023-05-10T10:28:53.543Z,65.08
2023-05-10T10:31:48.811Z,64.90
2023-05-10T10:34:29.725Z,65.40
2023-05-10T10:37:05.392Z,65.89
2023-05-10T10:39:38.155Z,66.47
2023-05-10T10:42:10.048Z,65.71
2023-05-10T10:44:40.449Z,65.70
2023-05-10T10:47:25.145Z,66.00
2023-05-10T10:50:06.187Z,66.03
2023-05-10T10:52:39.298Z,65.67
2023-05-10T10:55:16.697Z,65.95
2023-05-10T10:57:50.047Z,66.32
2023-05-10T11:00:24.784Z,66.77
2023-05-10T11:02:55.613Z,66.41
2023-05-10T11:05:38.457Z,66.21
2023-05-10T11:08:19.488Z,67.25
2023-05-10T11:10:55.800Z,67.64
2023-05-10T11:13:42.055Z,68.35
2023-05-10T11:16:16.962Z,68.69
2023-05-10T11:19:01.530Z,69.06
2023-05-10T11:21:36.000Z,69.11
2023-05-10T11:24:15.802Z,69.46
2023-05-10T11:26:44.988Z,69.66
2023-05-10T11:29:15.578Z,69.41
2023-05-10T11:31:46.883Z,69.29
2023-05-10T11:34:27.208Z,69.52
2023-05-10T11:36:58.238Z,69.51
2023-05-10T11:39:35.641Z,69.32
2023-05-10T11:42:05.462Z,69.10
2023-05-10T11:44:36.302Z,69.05
2023-05-10T11:47:08.645Z,68.53
2023-05-10T11:49:39.785Z,68.51
2023-05-10T11:52:10.153Z,68.62
2023-05-10T11:54:40.320Z,68.98
2023-05-10T11:57:12.013Z,69.57
2023-05-10T11:59:43.197Z,70.23
2023-05-10T12:02:15.568Z,71.13
2023-05-10T12:04:45.188Z,71.91
2023-05-10T12:07:16.799Z,72.15
2023-05-10T12:09:48.593Z,72.15
2023-05-10T12:12:19.652Z,72.41
2023-05-10T12:14:53.281Z,72.22
2023-05-10T12:17:23.666Z,72.77
2023-05-10T12:19:53.147Z,73.01
2023-05-10T12:22:23.651Z,73.21
2023-05-10T12:24:53.249Z,72.74
2023-05-10T12:27:22.831Z,72.39
2023-05-10T12:29:52.257Z,72.47
2023-05-10T12:32:22.328Z,71.79
2023-05-10T12:34:55.587Z,71.09
2023-05-10T12:37:31.175Z,70.32
2023-05-10T12:40:03.230Z,70.38
2023-05-10T12:42:33.455Z,70.41
2023-05-10T12:45:03.310Z,69.81
2023-05-10T12:47:34.596Z,68.68
2023-05-10T12:50:05.343Z,68.00
2023-05-10T12:52:36.890Z,68.74
2023-05-10T12:55:08.580Z,68.96
2023-05-10T12:57:39.074Z,68.85
2023-05-10T13:00:11.463Z,69.04
2023-05-10T13:02:42.955Z,68.99
2023-05-10T13:05:14.911Z,69.70
2023-05-10T13:07:45.628Z,70.12
2023-05-10T13:10:16.973Z,69.76
2023-05-10T13:12:47.882Z,69.55
2023-05-10T13:15:18.808Z,68.74
2023-05-10T13:17:51.715Z,68.31
2023-05-10T13:20:23.251Z,67.48
2023-05-10T13:22:53.484Z,68.42
2023-05-10T13:25:24.794Z,68.39
2023-05-10T13:27:56.091Z,68.38
2023-05-10T13:30:29.182Z,68.06
2023-05-10T13:32:59.707Z,67.63
2023-05-10T13:35:30.225Z,68.15
2023-05-10T13:38:01.562Z,67.82
2023-05-10T13:40:33.178Z,67.41
2023-05-10T13:43:05.015Z,66.10
2023-05-10T13:45:37.830Z,64.18
2023-05-10T13:48:10.013Z,63.12
2023-05-10T13:50:42.412Z,62.75
2023-05-10T13:53:16.396Z,61.55
2023-05-10T13:55:47.909Z,61.61
2023-05-10T13:58:18.683Z,62.10
2023-05-10T14:00:53.709Z,63.25
2023-05-10T14:03:25.978Z,63.07
2023-05-10T14:05:56.822Z,62.86
2023-05-10T14:08:29.683Z,63.09
2023-05-10T14:10:59.802Z,63.77
2023-05-10T14:13:32.772Z,64.28
2023-05-10T14:16:07.929Z,64.01
2023-05-10T14:18:39.556Z,64.29
2023-05-10T14:21:09.800Z,63.78
2023-05-10T14:23:40.184Z,64.14
2023-05-10T14:26:10.377Z,64.93
2023-05-10T14:28:41.317Z,65.60
2023-05-10T14:31:11.966Z,65.51
2023-05-10T14:33:42.549Z,65.80
2023-05-10T14:36:14.179Z,65.80
2023-05-10T14:38:46.016Z,65.82
2023-05-10T14:41:20.084Z,64.46
2023-05-10T14:43:51.718Z,64.37
2023-05-10T14:46:22.627Z,64.42
2023-05-10T14:48:52.765Z,63.12
2023-05-10T14:51:25.595Z,61.67
2023-05-10T14:53:56.212Z,62.33
2023-05-10T14:56:27.507Z,61.82
2023-05-10T14:58:58.488Z,61.13
2023-05-10T15:01:31.053Z,60.80
2023-05-10T15:04:02.328Z,60.54
2023-05-10T15:06:35.561Z,60.72
2023-05-10T15:09:07.841Z,60.78
2023-05-10T15:11:38.560Z,60.78
2023-05-10T15:14:08.848Z,60.81
2023-05-10T15:16:39.912Z,61.10
2023-05-10T15:19:10.207Z,61.52
2023-05-10T15:21:43.493Z,62.00
2023-05-10T15:24:13.875Z,62.40
2023-05-10T15:26:43.530Z,62.89
2023-05-10T15:29:13.013Z,63.38
2023-05-10T15:31:43.874Z,63.45
2023-05-10T15:34:14.708Z,63.41
2023-05-10T15:36:44.770Z,62.89
2023-05-10T15:39:14.450Z,62.96
2023-05-10T15:41:44.626Z,62.88
2023-05-10T15:44:13.771Z,63.07
2023-05-10T15:46:44.158Z,63.69
2023-05-10T15:49:14.059Z,64.13
2023-05-10T15:51:45.006Z,64.34
2023-05-10T15:54:15.580Z,64.34
2023-05-10T15:56:45.468Z,64.71
2023-05-10T15:59:15.078Z,64.69
2023-05-10T16:01:44.832Z,64.36
2023-05-10T16:04:14.802Z,64.04
2023-05-10T16:06:44.566Z,64.13
2023-05-10T16:09:14.793Z,64.13
2023-05-10T16:11:46.114Z,64.21
2023-05-10T16:14:18.112Z,63.97
2023-05-10T16:16:48.874Z,63.48
2023-05-10T16:19:19.012Z,63.42
2023-05-10T16:21:49.462Z,63.83
2023-05-10T16:24:20.497Z,63.61
2023-05-10T16:26:51.574Z,63.42
2023-05-10T16:29:21.291Z,63.66
2023-05-10T16:31:51.320Z,63.89
2023-05-10T16:34:25.406Z,64.32
2023-05-10T16:36:55.228Z,64.22
2023-05-10T16:39:25.576Z,64.26
2023-05-10T16:41:56.490Z,64.82
2023-05-10T16:44:28.628Z,65.26
2023-05-10T16:46:59.308Z,64.91
2023-05-10T16:49:32.095Z,64.69
2023-05-10T16:52:03.910Z,65.31
2023-05-10T16:54:37.502Z,65.50
2023-05-10T16:57:13.838Z,65.95
2023-05-10T16:59:45.808Z,66.05
2023-05-10T17:02:16.047Z,66.47
2023-05-10T17:04:46.392Z,67.37
2023-05-10T17:07:16.894Z,68.63
2023-05-10T17:09:47.522Z,69.81
2023-05-10T17:12:16.751Z,70.80
2023-05-10T17:14:46.433Z,71.62
2023-05-10T17:17:15.597Z,72.32
2023-05-10T17:19:48.574Z,73.26
2023-05-10T17:22:17.668Z,73.73
2023-05-10T17:24:47.483Z,74.15
2023-05-10T17:27:16.940Z,74.68
2023-05-10T17:29:46.946Z,75.06
2023-05-10T17:32:16.174Z,75.43
2023-05-10T17:34:46.138Z,75.57
2023-05-10T17:37:16.117Z,75.34
2023-05-10T17:39:45.624Z,75.52
2023-05-10T17:42:18.426Z,75.17
2023-05-10T17:44:48.533Z,75.05
2023-05-10T17:47:19.876Z,75.30
2023-05-10T17:49:49.885Z,74.91
2023-05-10T17:52:21.034Z,75.21
2023-05-10T17:54:50.313Z,75.74
2023-05-10T17:57:21.611Z,75.47
2023-05-10T17:59:52.334Z,75.27
2023-05-10T18:02:22.328Z,74.65
2023-05-10T18:04:51.862Z,74.73
2023-05-10T18:07:24.387Z,74.94
2023-05-10T18:09:53.624Z,75.15
2023-05-10T18:12:22.682Z,75.38
2023-05-10T18:14:53.328Z,75.39
2023-05-10T18:17:22.720Z,75.13
2023-05-10T18:19:52.463Z,75.00
2023-05-10T18:22:21.529Z,74.59
2023-05-10T18:24:51.947Z,74.70
2023-05-10T18:27:23.435Z,74.65
2023-05-10T18:29:53.555Z,74.56
2023-05-10T18:32:24.321Z,74.44
2023-05-10T18:34:57.008Z,74.83
2023-05-10T18:37:27.858Z,75.28
2023-05-10T18:40:00.286Z,74.88
2023-05-10T18:42:34.272Z,74.78
2023-05-10T18:45:04.273Z,74.69
2023-05-10T18:47:34.312Z,75.21
2023-05-10T18:50:06.616Z,75.29
2023-05-10T18:52:37.864Z,75.61
2023-05-10T18:55:09.123Z,75.54
2023-05-10T18:57:42.079Z,75.50
2023-05-10T19:00:12.919Z,75.20
2023-05-10T19:02:43.573Z,75.02
2023-05-10T19:05:16.002Z,75.09
2023-05-10T19:07:46.982Z,75.34
2023-05-10T19:10:17.131Z,76.00
2023-05-10T19:12:46.248Z,75.80
2023-05-10T19:15:20.949Z,76.14
2023-05-10T19:17:53.592Z,76.19
2023-05-10T19:20:26.102Z,76.41
2023-05-10T19:23:09.541Z,76.44
2023-05-10T19:25:43.471Z,76.41
2023-05-10T19:28:13.865Z,76.16
2023-05-10T19:30:43.813Z,75.97
2023-05-10T19:33:14.106Z,75.65
2023-05-10T19:35:43.796Z,75.54
2023-05-10T19:38:13.730Z,75.45
2023-05-10T19:40:43.857Z,75.66
2023-05-10T19:43:13.952Z,75.63
2023-05-10T19:45:44.800Z,75.62
2023-05-10T19:48:15.202Z,75.21
2023-05-10T19:50:46.361Z,75.13
2023-05-10T19:53:17.797Z,74.53
2023-05-10T19:55:47.973Z,74.60
2023-05-10T19:58:19.516Z,74.55
2023-05-10T20:00:49.324Z,74.72
2023-05-10T20:03:19.472Z,75.13
2023-05-10T20:05:49.554Z,75.34
2023-05-10T20:08:20.053Z,75.44
2023-05-10T20:10:50.747Z,75.64
2023-05-10T20:13:21.933Z,75.31
2023-05-10T20:16:00.092Z,75.30
2023-05-10T20:18:32.575Z,74.93
2023-05-10T20:21:03.126Z,74.88
2023-05-10T20:23:33.078Z,75.10
2023-05-10T20:26:03.649Z,75.55
2023-05-10T20:28:33.898Z,75.68
2023-05-10T20:31:04.532Z,75.59
2023-05-10T20:33:35.115Z,75.80
2023-05-10T20:36:05.615Z,75.86
2023-05-10T20:38:35.900Z,75.82
2023-05-10T20:41:07.095Z,75.70
2023-05-10T20:43:37.813Z,75.55
2023-05-10T20:46:08.435Z,75.51
2023-05-10T20:48:38.474Z,75.37
2023-05-10T20:51:08.534Z,75.18
2023-05-10T20:53:40.664Z,75.23
2023-05-10T20:56:11.129Z,75.41
2023-05-10T20:58:41.956Z,75.45
2023-05-10T21:01:13.692Z,75.25
2023-05-10T21:03:44.332Z,75.25
2023-05-10T21:06:14.395Z,75.06
2023-05-10T21:08:46.077Z,74.46
2023-05-10T21:11:16.270Z,74.50
2023-05-10T21:13:48.790Z,74.27
2023-05-10T21:16:21.553Z,74.20
2023-05-10T21:18:54.360Z,74.15
2023-05-10T21:21:26.955Z,74.13
2023-05-10T21:23:58.238Z,74.40
2023-05-10T21:26:28.358Z,74.72
2023-05-10T21:28:58.877Z,74.83
2023-05-10T21:31:28.210Z,75.10
2023-05-10T21:33:57.985Z,75.13
2023-05-10T21:36:27.950Z,74.96
2023-05-10T21:38:57.319Z,74.84
2023-05-10T21:41:27.035Z,74.55
2023-05-10T21:43:57.049Z,74.22
2023-05-10T21:46:26.437Z,74.58
2023-05-10T21:48:58.590Z,74.46
2023-05-10T21:51:29.478Z,74.90
2023-05-10T21:53:58.428Z,75.28
2023-05-10T21:56:27.462Z,75.75
2023-05-10T21:58:56.381Z,76.15
2023-05-10T22:01:26.723Z,76.07
2023-05-10T22:03:57.029Z,75.96
2023-05-10T22:06:26.489Z,76.07
2023-05-10T22:08:56.180Z,76.18
2023-05-10T22:11:27.173Z,76.18
2023-05-10T22:13:56.746Z,76.38
2023-05-10T22:16:27.023Z,76.28
2023-05-10T22:18:57.767Z,76.13
2023-05-10T22:21:28.585Z,75.94
2023-05-10T22:23:58.347Z,76.30
2023-05-10T22:26:28.793Z,76.32
2023-05-10T22:28:59.996Z,76.44
2023-05-10T22:31:29.941Z,76.00
2023-05-10T22:34:00.127Z,75.14
2023-05-10T22:36:30.567Z,74.73
2023-05-10T22:39:00.164Z,74.75
2023-05-10T22:41:31.120Z,74.53
2023-05-10T22:44:03.064Z,74.97
2023-05-10T22:46:33.976Z,74.94
2023-05-10T22:49:04.057Z,74.66
2023-05-10T22:51:33.594Z,74.19
2023-05-10T22:54:03.595Z,74.27
2023-05-10T22:56:34.670Z,74.46
2023-05-10T22:59:04.064Z,74.86
2023-05-10T23:01:35.421Z,75.07
2023-05-10T23:04:06.306Z,75.08
2023-05-10T23:06:38.260Z,74.74
2023-05-10T23:09:11.190Z,74.54
2023-05-10T23:11:44.045Z,74.64
2023-05-10T23:14:14.708Z,74.71
2023-05-10T23:16:45.260Z,74.64
2023-05-10T23:19:17.122Z,74.12
2023-05-10T23:21:47.065Z,73.62
2023-05-10T23:24:19.631Z,73.17
2023-05-10T23:26:50.615Z,72.39
2023-05-10T23:29:20.657Z,72.22
2023-05-10T23:31:50.097Z,72.36
2023-05-10T23:37:06.675Z,73.07
2023-05-10T23:39:37.133Z,73.46
2023-05-10T23:42:09.158Z,73.51
2023-05-10T23:44:39.828Z,73.46
2023-05-10T23:47:08.967Z,73.43
2023-05-10T23:49:42.610Z,73.80
2023-05-10T23:52:11.739Z,73.63
2023-05-10T23:54:40.616Z,73.68
2023-05-10T23:57:09.633Z,73.48
2023-05-10T23:59:39.773Z,73.29
